Aérodrome :
LOGIN :

S'inscrire | Disclaimer

   EN    FR    IT 

 










Légende :    VFR   VFR Marginal   IFR   IFR Intensif   IFR Très Intensif
Visi : 
Plafond : 
>= 8 km
>= 3000ft
5 à 8 km
1000 à 3000 ft
1500m à 5 km
500 à 1000 ft
800 à 1500m
200 à 500 ft
< 800m
< 200 ft
Symboles :   Orages  Brouillard  Fortes neiges  Fortes précipitations  Vent > 20 kt
SIGMETs :   Divers  Orages  Givrage  Turbulence  Onde Orograph.  Cendres Volcan.







- Altitude de l'aérodrome : 53 ft
- Code IATA : AGP


LEMG - Malaga

DERNIER METAR :
  • 221530Z 11013KT 9999 FEW025 SCT035 17/09 Q1024 NOSIG

METARs EXPIRÉS :
  • 221500Z 11013KT 080V150 9999 FEW025 SCT035 18/09 Q1024 NOSIG
  • 221400Z 12012KT 080V140 9999 FEW025 SCT035 18/08 Q1025 NOSIG
  • 221330Z 11013KT 080V150 9999 FEW025 SCT035 18/08 Q1025 NOSIG
  • 221300Z 11013KT 080V150 9999 FEW025 SCT035 18/07 Q1025 NOSIG

TAF TAF LEMG
Valide du 22 à 12h jusqu'au 23 à 12h UTC


221100Z 2212/2312 11011KT 9999 FEW030 TX19/2214Z TN11/2306Z
BECMG 2222/2224 29006KT
BECMG 2308/2310 11014KT
Pas de NOTAMs connus pour ce terrain.



MET'MAP, la Météo Aéronautique d'un coup d'oeil ! - Copyright ORBIFLY Décembre 2007 - Disclaimer

ORBIFLY MET'MAP TEAM :

Programmation & Développement : Alexandra Zaïnal
Conception & Développement : Baudouin d'Aumeries
Co-Programmation & Développement : Marc-Olivier Méhu
Soutien technique & logistique : Manuel Goepfert

Contact : metmap@orbifly.com




SOURCES & CREDITS :

   NOAA